Time;durP1;ratioP1;P1;durP2;ratioP2;P2;SDS_P1;SDS_P2;PMS_P1;PMS_P2;Temp;Humidity;BMP_temperature;BMP_pressure;BME280_temperature;BME280_humidity;BME280_pressure;Samples;Min_cycle;Max_cycle;Signal;HPM_P1;HPM_P2
2021/10/13 00:01:28;;;;;;;22.95;15.40;;;6.40;99.90;;;;;;4963672;28;20023;-73
2021/10/13 00:03:53;;;;;;;33.90;20.20;;;6.30;99.90;;;;;;4960942;28;20050;-73
2021/10/13 00:06:19;;;;;;;30.02;19.10;;;6.30;99.90;;;;;;4962719;28;20036;-73
2021/10/13 00:08:44;;;;;;;36.45;20.50;;;6.40;99.90;;;;;;4945508;28;20030;-73
2021/10/13 00:11:10;;;;;;;23.98;16.60;;;6.40;99.90;;;;;;4961751;28;20024;-73
2021/10/13 00:13:35;;;;;;;35.08;20.70;;;6.30;99.90;;;;;;4958746;28;20023;-73
2021/10/13 00:16:01;;;;;;;43.15;19.50;;;6.30;99.90;;;;;;4967375;28;20023;-73
2021/10/13 00:18:27;;;;;;;41.85;20.00;;;6.20;99.90;;;;;;4964882;28;20091;-73
2021/10/13 00:20:53;;;;;;;28.02;18.50;;;6.20;99.90;;;;;;4961200;28;20038;-73
2021/10/13 00:23:18;;;;;;;34.20;20.67;;;6.20;99.90;;;;;;4968923;28;20034;-73
2021/10/13 00:25:44;;;;;;;22.52;16.20;;;6.20;99.90;;;;;;4961618;28;20027;-73
2021/10/13 00:28:09;;;;;;;56.08;23.75;;;6.10;99.90;;;;;;4967376;28;20370;-73
2021/10/13 00:30:35;;;;;;;27.85;17.13;;;6.10;99.90;;;;;;4961295;28;20094;-73
2021/10/13 00:33:00;;;;;;;35.08;19.48;;;6.00;99.90;;;;;;4968825;28;20505;-73
2021/10/13 00:35:26;;;;;;;30.92;18.20;;;6.00;99.90;;;;;;4967117;28;20027;-74
2021/10/13 00:37:51;;;;;;;30.67;18.05;;;6.00;99.90;;;;;;4951355;28;20026;-74
2021/10/13 00:40:17;;;;;;;31.08;19.88;;;6.10;99.90;;;;;;4965988;28;20394;-74
2021/10/13 00:42:42;;;;;;;24.33;18.15;;;6.10;99.90;;;;;;4968455;28;20054;-73
2021/10/13 00:45:08;;;;;;;28.55;18.30;;;6.10;99.90;;;;;;4947721;28;20113;-74
2021/10/13 00:47:35;;;;;;;30.15;20.00;;;6.10;99.90;;;;;;4951315;28;20027;-74
2021/10/13 00:50:01;;;;;;;36.88;21.33;;;6.20;99.90;;;;;;4967962;28;20023;-74
2021/10/13 00:52:26;;;;;;;45.42;22.90;;;6.10;99.90;;;;;;4968194;28;20646;-74
2021/10/13 00:54:52;;;;;;;30.38;19.88;;;6.10;99.90;;;;;;4968371;28;20061;-74
2021/10/13 00:57:17;;;;;;;25.63;18.20;;;6.10;99.90;;;;;;4948906;28;20027;-73
2021/10/13 00:59:43;;;;;;;23.58;17.85;;;6.20;99.90;;;;;;4968555;28;20486;-74
2021/10/13 01:02:22;;;;;;;25.27;19.08;;;6.20;99.90;;;;;;4971892;28;20369;-73
2021/10/13 01:05:25;;;;;;;32.58;19.38;;;6.20;99.90;;;;;;4964878;28;20081;-74
2021/10/13 01:08:03;;;;;;;44.83;21.55;;;6.10;99.90;;;;;;4961198;28;20442;-73
2021/10/13 01:10:44;;;;;;;27.48;18.38;;;6.20;99.90;;;;;;4967484;28;20022;-74
2021/10/13 01:13:16;;;;;;;27.85;17.90;;;6.30;99.90;;;;;;4944534;28;20027;-73
2021/10/13 01:16:05;;;;;;;24.23;17.17;;;6.10;99.90;;;;;;4959326;28;20026;-73
2021/10/13 01:19:11;;;;;;;35.47;19.67;;;6.20;99.90;;;;;;4967651;28;20038;-74
2021/10/13 01:21:57;;;;;;;29.98;17.70;;;6.20;99.90;;;;;;4945540;28;20034;-74
2021/10/13 01:24:41;;;;;;;22.17;15.82;;;6.20;99.90;;;;;;4967446;28;20023;-74
2021/10/13 01:27:29;;;;;;;21.50;16.05;;;6.20;99.90;;;;;;4966021;28;20429;-74
2021/10/13 01:29:56;;;;;;;25.35;15.73;;;6.20;99.90;;;;;;4943669;28;20469;-75
2021/10/13 01:32:26;;;;;;;22.45;15.30;;;6.10;99.90;;;;;;4958000;28;20031;-72
2021/10/13 01:34:57;;;;;;;19.00;13.98;;;6.20;99.90;;;;;;4956660;29;20027;-74
2021/10/13 01:37:27;;;;;;;15.52;12.32;;;6.30;99.90;;;;;;4939068;29;20023;-73
2021/10/13 01:39:57;;;;;;;23.30;15.75;;;6.40;99.90;;;;;;4943915;29;20028;-73
2021/10/13 01:42:24;;;;;;;26.02;16.77;;;6.40;99.90;;;;;;4942359;28;20031;-74
2021/10/13 01:44:55;;;;;;;21.98;15.63;;;6.30;99.90;;;;;;4956269;29;20042;-74
2021/10/13 01:47:21;;;;;;;16.45;12.70;;;6.30;99.90;;;;;;4939065;29;20081;-74
2021/10/13 01:49:49;;;;;;;20.10;15.13;;;6.40;99.90;;;;;;4942139;29;20106;-74
2021/10/13 01:52:17;;;;;;;22.52;15.68;;;6.50;99.90;;;;;;4936903;29;20020;-74
2021/10/13 01:54:44;;;;;;;35.28;19.83;;;6.50;99.90;;;;;;4951285;29;20474;-74
2021/10/13 01:57:10;;;;;;;25.08;16.13;;;6.50;99.90;;;;;;4956021;29;20371;-73
2021/10/13 01:59:40;;;;;;;26.40;17.80;;;6.30;99.90;;;;;;4955922;29;20039;-73
2021/10/13 02:02:06;;;;;;;28.85;17.80;;;6.20;99.90;;;;;;4938467;29;20031;-74
2021/10/13 02:04:37;;;;;;;29.50;17.63;;;6.10;99.90;;;;;;4955797;29;20027;-73
2021/10/13 02:07:03;;;;;;;32.53;18.77;;;6.20;99.90;;;;;;4955798;29;20031;-73
2021/10/13 02:09:30;;;;;;;28.75;17.45;;;6.30;99.90;;;;;;4958750;28;20022;-74
2021/10/13 02:11:57;;;;;;;25.88;16.45;;;6.20;99.90;;;;;;4947861;29;20061;-74
2021/10/13 02:14:26;;;;;;;32.30;18.40;;;6.10;99.90;;;;;;4935232;29;20028;-74
2021/10/13 02:16:54;;;;;;;32.65;18.58;;;6.10;99.90;;;;;;4946661;29;20019;-75
2021/10/13 02:19:21;;;;;;;26.02;16.90;;;6.00;99.90;;;;;;4942733;29;20542;-74
2021/10/13 02:21:52;;;;;;;32.13;19.85;;;6.00;99.90;;;;;;4927508;29;20024;-75
2021/10/13 02:24:27;;;;;;;28.42;17.08;;;6.10;99.90;;;;;;4954156;29;20426;-74
2021/10/13 02:27:01;;;;;;;29.50;18.33;;;6.20;99.90;;;;;;4943138;29;20039;-74
2021/10/13 02:29:26;;;;;;;33.80;19.08;;;6.20;99.90;;;;;;4943431;29;20027;-74
2021/10/13 02:31:52;;;;;;;24.05;15.98;;;6.10;99.90;;;;;;4955262;28;20505;-75
2021/10/13 02:34:18;;;;;;;35.05;18.13;;;6.20;99.90;;;;;;4955380;28;20020;-75
2021/10/13 02:36:43;;;;;;;28.05;15.60;;;6.30;99.90;;;;;;4924810;29;20019;-74
2021/10/13 02:39:09;;;;;;;20.52;14.05;;;6.30;99.90;;;;;;4943246;29;20031;-75
2021/10/13 02:41:36;;;;;;;13.55;11.25;;;6.40;99.90;;;;;;4941711;29;20020;-75
2021/10/13 02:44:07;;;;;;;14.45;11.25;;;6.30;99.90;;;;;;4936078;29;20123;-74
2021/10/13 02:46:45;;;;;;;12.18;10.15;;;6.20;99.90;;;;;;4932865;29;20035;-73
2021/10/13 02:49:39;;;;;;;13.55;10.80;;;6.30;99.90;;;;;;4955234;28;20031;-73
2021/10/13 02:52:12;;;;;;;16.38;11.38;;;6.40;99.90;;;;;;4942110;29;20055;-74
2021/10/13 02:55:10;;;;;;;16.33;11.68;;;6.30;99.90;;;;;;4954681;28;20533;-74
2021/10/13 02:57:46;;;;;;;14.73;10.57;;;6.30;99.90;;;;;;4927867;29;20130;-74
2021/10/13 03:00:13;;;;;;;15.13;10.93;;;6.10;99.90;;;;;;4956122;28;20109;-74
2021/10/13 03:03:02;;;;;;;13.77;10.30;;;6.10;99.90;;;;;;4954690;29;20540;-74
2021/10/13 03:05:29;;;;;;;13.45;10.02;;;6.20;99.90;;;;;;4954726;28;20630;-74
2021/10/13 03:08:01;;;;;;;16.42;11.30;;;6.30;99.90;;;;;;4934781;29;20431;-75
2021/10/13 03:10:28;;;;;;;21.48;12.75;;;6.20;99.90;;;;;;4951311;29;20059;-75
2021/10/13 03:12:57;;;;;;;15.30;10.98;;;6.00;99.90;;;;;;4950229;29;20019;-75
2021/10/13 03:15:25;;;;;;;19.38;12.70;;;6.10;99.90;;;;;;4946741;29;20027;-73
2021/10/13 03:17:55;;;;;;;16.05;11.52;;;6.10;99.90;;;;;;4942243;29;20023;-73
2021/10/13 03:20:23;;;;;;;13.00;10.35;;;6.40;99.90;;;;;;4938764;29;20038;-73
2021/10/13 03:22:50;;;;;;;12.50;9.40;;;6.10;99.90;;;;;;4925443;29;20166;-73
2021/10/13 03:25:23;;;;;;;13.73;10.57;;;6.10;99.90;;;;;;4943100;29;20498;-73
2021/10/13 03:27:49;;;;;;;13.55;10.10;;;5.90;99.90;;;;;;4925367;29;20606;-74
2021/10/13 03:30:15;;;;;;;20.60;12.27;;;6.00;99.90;;;;;;4954775;29;20520;-75
2021/10/13 03:32:44;;;;;;;19.90;12.63;;;5.90;99.90;;;;;;4926416;29;20034;-76
2021/10/13 03:35:10;;;;;;;21.48;13.13;;;6.00;99.90;;;;;;4924678;29;20024;-74
2021/10/13 03:37:35;;;;;;;30.38;14.40;;;5.90;99.90;;;;;;4954184;29;20509;-74
2021/10/13 03:40:01;;;;;;;19.17;12.68;;;5.80;99.90;;;;;;4954251;28;20039;-74
2021/10/13 03:42:27;;;;;;;16.25;12.18;;;5.90;99.90;;;;;;4947138;29;20031;-74
2021/10/13 03:44:52;;;;;;;13.63;10.63;;;5.80;99.90;;;;;;4947832;29;20019;-75
2021/10/13 03:47:18;;;;;;;15.90;11.40;;;5.90;99.90;;;;;;4942316;29;20042;-75
2021/10/13 03:49:43;;;;;;;21.17;12.98;;;5.90;99.90;;;;;;4924240;29;20126;-76
2021/10/13 03:52:09;;;;;;;15.05;10.82;;;5.90;99.90;;;;;;4929754;29;20134;-74
2021/10/13 03:54:34;;;;;;;22.38;12.95;;;5.80;99.90;;;;;;4948625;29;20031;-74
2021/10/13 03:56:59;;;;;;;24.88;13.13;;;5.70;99.90;;;;;;4936928;29;20034;-74
2021/10/13 03:59:25;;;;;;;26.85;13.02;;;5.70;99.90;;;;;;4923943;29;20510;-74
2021/10/13 04:01:51;;;;;;;105.40;15.20;;;5.70;99.90;;;;;;4929880;29;20103;-73
2021/10/13 04:04:16;;;;;;;30.50;14.95;;;5.50;99.90;;;;;;4947680;28;20019;-73
2021/10/13 04:06:42;;;;;;;147.93;18.77;;;5.50;99.90;;;;;;4946835;29;20462;-74
2021/10/13 04:09:08;;;;;;;19.13;12.10;;;5.50;99.90;;;;;;4939757;29;20031;-74
2021/10/13 04:11:34;;;;;;;21.00;12.57;;;5.50;99.90;;;;;;4953759;29;20027;-74
2021/10/13 04:13:59;;;;;;;19.00;12.52;;;5.50;99.90;;;;;;4941104;29;20020;-73
2021/10/13 04:16:25;;;;;;;15.82;11.38;;;5.80;99.90;;;;;;4947786;29;20391;-74
2021/10/13 04:18:50;;;;;;;16.70;11.98;;;5.50;99.90;;;;;;4930255;29;20031;-73
2021/10/13 04:21:16;;;;;;;26.42;14.38;;;5.50;99.90;;;;;;4934675;29;20118;-73
2021/10/13 04:23:41;;;;;;;182.55;20.67;;;5.40;99.90;;;;;;4947333;29;20035;-72
2021/10/13 04:26:07;;;;;;;426.80;30.23;;;5.20;99.90;;;;;;4940822;29;20042;-73
2021/10/13 04:28:32;;;;;;;251.90;28.15;;;5.10;99.90;;;;;;4941299;29;20047;-74
2021/10/13 04:30:58;;;;;;;15.85;11.82;;;5.10;99.90;;;;;;4947306;29;20027;-73
2021/10/13 04:33:23;;;;;;;19.75;13.20;;;5.20;99.90;;;;;;4946944;29;20103;-74
2021/10/13 04:35:49;;;;;;;25.40;14.02;;;5.20;99.90;;;;;;4940761;29;20107;-74
2021/10/13 04:38:14;;;;;;;25.73;13.77;;;5.30;99.90;;;;;;4941363;29;20393;-74
2021/10/13 04:40:40;;;;;;;13.40;10.60;;;5.30;99.90;;;;;;4929911;29;20542;-74
2021/10/13 04:43:05;;;;;;;29.35;14.35;;;5.20;99.90;;;;;;4946523;29;20031;-74
2021/10/13 04:45:31;;;;;;;26.83;16.17;;;5.30;99.90;;;;;;4940687;29;20027;-73
2021/10/13 04:47:56;;;;;;;16.00;11.65;;;5.20;99.90;;;;;;4941598;29;20394;-73
2021/10/13 04:50:22;;;;;;;28.85;14.75;;;5.20;99.90;;;;;;4947177;29;20507;-73
2021/10/13 04:52:48;;;;;;;28.48;14.20;;;5.10;99.90;;;;;;4945873;29;20092;-74
2021/10/13 04:55:13;;;;;;;47.83;17.27;;;4.80;99.90;;;;;;4923567;29;20023;-73
2021/10/13 04:57:39;;;;;;;119.65;22.27;;;4.90;99.90;;;;;;4924916;29;20569;-73
2021/10/13 05:00:05;;;;;;;198.60;23.40;;;4.70;99.90;;;;;;4947087;29;20031;-75
2021/10/13 05:02:31;;;;;;;45.75;17.40;;;4.80;99.90;;;;;;4928295;29;20031;-74
2021/10/13 05:04:56;;;;;;;19.33;13.73;;;4.90;99.90;;;;;;4940470;29;20035;-70
2021/10/13 05:07:22;;;;;;;22.90;14.07;;;5.00;99.90;;;;;;4942322;29;20035;-75
2021/10/13 05:09:47;;;;;;;22.13;14.68;;;5.10;99.90;;;;;;4934314;29;20422;-74
2021/10/13 05:12:13;;;;;;;19.67;15.27;;;5.20;99.90;;;;;;4924219;29;20496;-74
2021/10/13 05:14:39;;;;;;;20.33;16.88;;;5.20;99.90;;;;;;4946880;29;20028;-74
2021/10/13 05:17:04;;;;;;;17.77;15.63;;;5.20;99.90;;;;;;4948225;29;20034;-74
2021/10/13 05:19:30;;;;;;;26.10;18.23;;;5.30;99.90;;;;;;4943843;29;20027;-73
2021/10/13 05:21:55;;;;;;;18.80;15.25;;;5.30;99.90;;;;;;4944961;29;20035;-74
2021/10/13 05:24:21;;;;;;;19.50;15.95;;;5.30;99.90;;;;;;4933366;29;20114;-74
2021/10/13 05:26:46;;;;;;;24.25;17.38;;;5.20;99.90;;;;;;4920368;29;20497;-73
2021/10/13 05:29:12;;;;;;;22.65;17.45;;;5.20;99.90;;;;;;4950498;29;20043;-74
2021/10/13 05:31:37;;;;;;;20.92;17.60;;;5.30;99.90;;;;;;4948324;29;20102;-74
2021/10/13 05:34:03;;;;;;;18.35;16.38;;;5.30;99.90;;;;;;4923327;29;20110;-74
2021/10/13 05:36:28;;;;;;;16.65;14.52;;;5.40;99.90;;;;;;4949528;29;20445;-74
2021/10/13 05:38:55;;;;;;;17.98;15.32;;;5.50;99.90;;;;;;4934719;29;20459;-74
2021/10/13 05:41:20;;;;;;;22.08;18.10;;;5.60;99.90;;;;;;4948159;29;20027;-74
2021/10/13 05:43:46;;;;;;;17.58;14.27;;;5.60;99.90;;;;;;4943488;29;20034;-74
2021/10/13 05:46:11;;;;;;;15.93;12.18;;;5.70;99.90;;;;;;4945393;29;20031;-74
2021/10/13 05:48:37;;;;;;;23.77;16.63;;;5.80;99.90;;;;;;4949894;29;20379;-74
2021/10/13 05:51:02;;;;;;;19.73;14.50;;;5.80;99.90;;;;;;4947840;29;20438;-75
2021/10/13 05:53:29;;;;;;;17.67;14.20;;;5.90;99.90;;;;;;4943294;29;20023;-75
2021/10/13 05:55:54;;;;;;;31.73;16.77;;;5.90;99.90;;;;;;4945267;29;20047;-75
2021/10/13 05:58:22;;;;;;;34.80;18.40;;;5.90;99.90;;;;;;4949675;29;20063;-74
2021/10/13 06:00:48;;;;;;;39.67;23.02;;;5.80;99.90;;;;;;4947799;29;20495;-74
2021/10/13 06:03:14;;;;;;;40.75;19.13;;;5.50;99.90;;;;;;4943235;29;20051;-74
2021/10/13 06:05:40;;;;;;;23.75;15.43;;;5.20;99.90;;;;;;4945029;29;20044;-74
2021/10/13 06:08:05;;;;;;;19.40;13.77;;;5.00;99.90;;;;;;4954052;29;20027;-75
2021/10/13 06:10:31;;;;;;;31.30;17.23;;;5.10;99.90;;;;;;4949839;28;20031;-74
2021/10/13 06:12:56;;;;;;;32.85;18.27;;;5.30;99.90;;;;;;4957064;28;20027;-75
2021/10/13 06:15:24;;;;;;;21.85;14.70;;;5.40;99.90;;;;;;4927510;29;20438;-74
2021/10/13 06:17:49;;;;;;;43.78;24.02;;;5.50;99.90;;;;;;4949317;28;20020;-75
2021/10/13 06:20:15;;;;;;;55.97;28.90;;;5.70;99.90;;;;;;4948051;29;20549;-75
2021/10/13 06:22:41;;;;;;;46.72;26.42;;;5.70;99.90;;;;;;4942416;29;20039;-74
2021/10/13 06:25:07;;;;;;;66.78;32.72;;;5.70;99.90;;;;;;4944514;29;20031;-74
2021/10/13 06:27:33;;;;;;;75.32;37.30;;;5.60;99.90;;;;;;4953160;28;20023;-74
2021/10/13 06:29:58;;;;;;;52.78;29.50;;;5.60;99.90;;;;;;4944244;29;20030;-74
2021/10/13 06:32:24;;;;;;;48.45;24.92;;;5.60;99.90;;;;;;4932072;29;20028;-74
2021/10/13 06:34:50;;;;;;;30.90;19.40;;;5.60;99.90;;;;;;4947492;29;20066;-74
2021/10/13 06:37:15;;;;;;;37.15;22.55;;;5.50;99.90;;;;;;4925218;29;20398;-75
2021/10/13 06:39:41;;;;;;;38.58;23.58;;;5.60;99.90;;;;;;4944425;29;20066;-74
2021/10/13 06:42:07;;;;;;;44.20;23.30;;;5.70;99.90;;;;;;4948902;29;20035;-74
2021/10/13 06:44:32;;;;;;;37.13;21.02;;;5.70;99.90;;;;;;4947406;29;20038;-73
2021/10/13 06:46:58;;;;;;;34.10;21.30;;;5.70;99.90;;;;;;4942453;29;20050;-73
2021/10/13 06:49:23;;;;;;;32.67;19.08;;;5.70;99.90;;;;;;4938110;29;20050;-75
2021/10/13 06:51:49;;;;;;;37.45;20.50;;;5.70;99.90;;;;;;4942018;29;20027;-74
2021/10/13 06:54:15;;;;;;;26.77;17.83;;;5.70;99.90;;;;;;4943963;29;20112;-74
2021/10/13 06:56:41;;;;;;;31.92;19.35;;;5.80;99.90;;;;;;4931319;29;20035;-74
2021/10/13 06:59:07;;;;;;;32.00;19.88;;;5.90;99.90;;;;;;4946926;29;20545;-74
2021/10/13 07:01:33;;;;;;;24.95;18.50;;;6.00;99.90;;;;;;4932850;29;20126;-74
2021/10/13 07:03:59;;;;;;;27.95;21.58;;;6.00;99.90;;;;;;4929660;29;20027;-74
2021/10/13 07:06:25;;;;;;;26.58;20.60;;;6.00;99.90;;;;;;4941943;29;20031;-74
2021/10/13 07:08:51;;;;;;;30.65;23.30;;;5.90;99.90;;;;;;4954762;29;20019;-74
2021/10/13 07:11:16;;;;;;;32.20;22.92;;;5.90;99.90;;;;;;4954602;29;20030;-75
2021/10/13 07:13:42;;;;;;;25.63;18.80;;;5.80;99.90;;;;;;4937829;29;20062;-76
2021/10/13 07:16:08;;;;;;;29.00;19.35;;;5.80;99.90;;;;;;4949860;29;20028;-75
2021/10/13 07:18:33;;;;;;;24.73;17.65;;;5.70;99.90;;;;;;4946870;29;20034;-74
2021/10/13 07:20:59;;;;;;;24.60;17.05;;;5.90;99.90;;;;;;4940194;29;20031;-74
2021/10/13 07:23:24;;;;;;;22.75;16.77;;;5.80;99.90;;;;;;4925710;29;20063;-74
2021/10/13 07:25:50;;;;;;;21.58;16.42;;;5.90;99.90;;;;;;4935509;29;20118;-74
2021/10/13 07:28:16;;;;;;;22.40;16.60;;;5.90;99.90;;;;;;4943373;29;20036;-74
2021/10/13 07:30:42;;;;;;;25.40;17.23;;;6.00;99.90;;;;;;4947997;29;20027;-75
2021/10/13 07:33:08;;;;;;;26.27;18.35;;;6.10;99.90;;;;;;4946117;29;20058;-74
2021/10/13 07:35:34;;;;;;;26.55;18.83;;;6.00;99.90;;;;;;4941507;29;20506;-73
2021/10/13 07:37:59;;;;;;;27.75;20.77;;;6.00;99.90;;;;;;4926447;29;20043;-74
2021/10/13 07:40:25;;;;;;;23.90;19.20;;;6.00;99.90;;;;;;4946960;28;20023;-74
2021/10/13 07:42:52;;;;;;;24.88;18.60;;;6.10;99.90;;;;;;4928436;29;20027;-74
2021/10/13 07:45:18;;;;;;;24.73;16.63;;;6.20;99.90;;;;;;4941528;29;20110;-74
2021/10/13 07:47:44;;;;;;;23.27;17.67;;;6.10;99.90;;;;;;4925880;29;20115;-74
2021/10/13 07:50:10;;;;;;;21.75;18.33;;;6.10;99.90;;;;;;4952539;29;20027;-75
2021/10/13 07:52:36;;;;;;;27.90;19.65;;;6.20;99.90;;;;;;4925474;29;20080;-74
2021/10/13 07:55:02;;;;;;;28.50;19.20;;;6.20;99.90;;;;;;4930698;29;20438;-74
2021/10/13 07:57:28;;;;;;;19.70;17.30;;;6.40;99.90;;;;;;4928910;29;20397;-74
2021/10/13 07:59:54;;;;;;;23.45;19.70;;;6.20;99.90;;;;;;4923910;29;20472;-74
2021/10/13 08:02:20;;;;;;;26.25;20.17;;;6.20;99.90;;;;;;4942664;29;20071;-74
2021/10/13 08:04:45;;;;;;;25.13;19.02;;;6.40;99.90;;;;;;4930818;29;20110;-74
2021/10/13 08:07:11;;;;;;;26.75;20.17;;;6.50;99.90;;;;;;4945490;29;20031;-73
2021/10/13 08:09:36;;;;;;;28.60;20.90;;;6.60;99.90;;;;;;4945398;28;20049;-74
2021/10/13 08:12:02;;;;;;;29.40;21.00;;;6.60;99.90;;;;;;4944022;29;20111;-74
2021/10/13 08:14:28;;;;;;;30.23;21.60;;;6.40;99.90;;;;;;4948582;29;20024;-74
2021/10/13 08:16:54;;;;;;;25.02;20.58;;;6.40;99.90;;;;;;4945210;29;20027;-75
2021/10/13 08:19:20;;;;;;;23.80;19.42;;;6.30;99.90;;;;;;4940983;29;20035;-74
2021/10/13 08:21:46;;;;;;;24.38;19.67;;;6.50;99.90;;;;;;4926032;29;20442;-74
2021/10/13 08:24:11;;;;;;;26.60;19.98;;;6.80;99.90;;;;;;4951382;29;20035;-74
2021/10/13 08:26:37;;;;;;;24.58;14.88;;;6.80;99.90;;;;;;4943492;29;20020;-74
2021/10/13 08:29:02;;;;;;;17.92;13.20;;;6.80;99.90;;;;;;4947375;29;20031;-74
2021/10/13 08:31:28;;;;;;;15.05;13.07;;;6.60;99.90;;;;;;4944352;29;20468;-74
2021/10/13 08:33:53;;;;;;;15.75;12.57;;;6.70;99.90;;;;;;4937521;29;20039;-73
2021/10/13 08:36:22;;;;;;;15.30;12.82;;;6.80;99.90;;;;;;4944099;29;20470;-74
2021/10/13 08:38:48;;;;;;;18.70;12.95;;;7.00;99.90;;;;;;4940792;29;20394;-74
2021/10/13 08:41:14;;;;;;;16.65;12.77;;;7.00;99.90;;;;;;4943542;29;20031;-74
2021/10/13 08:43:42;;;;;;;17.23;14.00;;;6.90;99.90;;;;;;4947201;29;20086;-74
2021/10/13 08:46:08;;;;;;;17.67;13.70;;;7.10;99.90;;;;;;4927510;29;20030;-74
2021/10/13 08:48:33;;;;;;;17.20;12.85;;;7.20;99.90;;;;;;4949425;29;20394;-74
2021/10/13 08:50:59;;;;;;;18.38;13.05;;;7.20;99.90;;;;;;4927794;29;20027;-73
2021/10/13 08:53:24;;;;;;;18.35;12.93;;;6.90;99.90;;;;;;4927461;29;20023;-74
2021/10/13 08:55:51;;;;;;;16.00;13.15;;;6.80;99.90;;;;;;4939980;29;20414;-74
2021/10/13 08:58:22;;;;;;;16.52;12.70;;;6.70;99.90;;;;;;4943613;29;20050;-74
2021/10/13 09:00:50;;;;;;;18.52;13.18;;;6.70;99.90;;;;;;4953892;29;20035;-74
2021/10/13 09:03:39;;;;;;;15.25;12.82;;;6.90;99.90;;;;;;4956762;29;20118;-74
2021/10/13 09:06:27;;;;;;;15.05;12.50;;;7.10;99.90;;;;;;4944413;29;20074;-74
2021/10/13 09:09:06;;;;;;;20.40;13.43;;;7.20;99.90;;;;;;4932655;28;20047;-72
2021/10/13 09:11:55;;;;;;;17.65;13.38;;;7.30;99.90;;;;;;4944187;29;20027;-72
2021/10/13 09:14:25;;;;;;;15.63;12.40;;;7.20;99.90;;;;;;4956211;28;20035;-72
2021/10/13 09:17:04;;;;;;;14.43;12.40;;;7.40;99.90;;;;;;4966808;28;20027;-73
2021/10/13 09:19:42;;;;;;;15.25;12.50;;;7.40;99.90;;;;;;4940151;29;20122;-72
2021/10/13 09:22:10;;;;;;;14.50;11.80;;;7.60;99.90;;;;;;4956376;28;20063;-72
2021/10/13 09:24:41;;;;;;;13.75;10.63;;;8.00;99.90;;;;;;4956529;29;20078;-72
2021/10/13 09:27:36;;;;;;;11.48;9.48;;;8.00;99.90;;;;;;4956295;28;20049;-72
2021/10/13 09:30:05;;;;;;;9.50;8.32;;;8.00;99.90;;;;;;4943979;29;20417;-73
2021/10/13 09:32:30;;;;;;;9.63;8.35;;;8.00;99.90;;;;;;4956204;28;20058;-73
2021/10/13 09:35:00;;;;;;;11.60;8.00;;;8.00;99.90;;;;;;4939239;29;20059;-73
2021/10/13 09:37:45;;;;;;;9.57;7.30;;;8.10;99.90;;;;;;4939188;29;20035;-73
2021/10/13 09:40:11;;;;;;;9.15;7.57;;;8.30;99.90;;;;;;4939099;29;20027;-73
2021/10/13 09:42:38;;;;;;;10.00;7.55;;;8.30;99.90;;;;;;4956212;28;20037;-73
2021/10/13 09:45:05;;;;;;;16.00;9.15;;;8.10;99.90;;;;;;4939048;29;20031;-73
2021/10/13 09:47:33;;;;;;;14.02;9.35;;;7.80;99.90;;;;;;4956021;28;20027;-73
2021/10/13 09:50:00;;;;;;;12.45;10.02;;;7.40;99.90;;;;;;4938985;29;20486;-73
2021/10/13 09:52:30;;;;;;;15.85;11.63;;;8.00;99.90;;;;;;4955959;29;20023;-73
2021/10/13 09:55:01;;;;;;;14.52;7.03;;;8.30;99.90;;;;;;4956134;29;20046;-73
2021/10/13 09:57:28;;;;;;;7.85;6.22;;;8.30;99.90;;;;;;4956026;29;20035;-72
2021/10/13 10:00:12;;;;;;;6.43;5.75;;;8.30;99.90;;;;;;4956013;29;20046;-73
2021/10/13 10:02:48;;;;;;;6.45;5.82;;;8.30;99.90;;;;;;4954776;28;20030;-73
2021/10/13 10:05:20;;;;;;;7.40;5.15;;;8.70;99.90;;;;;;4956037;29;20023;-73
2021/10/13 10:08:07;;;;;;;7.90;4.97;;;8.80;99.90;;;;;;4938517;29;20036;-73
2021/10/13 10:10:34;;;;;;;5.60;4.55;;;8.90;99.90;;;;;;4967343;28;20015;-72
2021/10/13 10:13:01;;;;;;;8.02;5.07;;;9.00;99.90;;;;;;4956953;28;20038;-73
2021/10/13 10:15:38;;;;;;;7.30;5.20;;;8.90;99.90;;;;;;4955792;28;20027;-73
2021/10/13 10:18:34;;;;;;;6.43;4.95;;;8.80;99.90;;;;;;4926058;29;20438;-73
2021/10/13 10:21:26;;;;;;;6.13;4.18;;;8.60;99.90;;;;;;4936683;29;20032;-72
2021/10/13 10:24:18;;;;;;;7.15;4.20;;;8.50;99.90;;;;;;4946599;28;20028;-73
2021/10/13 10:26:44;;;;;;;4.00;3.42;;;8.50;99.90;;;;;;4955836;28;20030;-73
2021/10/13 10:29:15;;;;;;;5.07;3.20;;;8.50;99.90;;;;;;4964953;28;20035;-73
2021/10/13 10:32:02;;;;;;;6.28;4.40;;;8.60;99.90;;;;;;4966487;28;20061;-73
2021/10/13 10:34:28;;;;;;;7.55;3.85;;;8.70;99.90;;;;;;4964715;28;20039;-73
2021/10/13 10:36:56;;;;;;;4.03;3.45;;;8.90;99.90;;;;;;4950013;28;20031;-73
2021/10/13 10:39:52;;;;;;;5.93;3.65;;;8.90;99.90;;;;;;4964969;28;20098;-73
2021/10/13 10:42:56;;;;;;;6.72;2.92;;;9.00;99.90;;;;;;4962238;28;20031;-73
2021/10/13 10:45:23;;;;;;;3.90;2.80;;;9.20;99.90;;;;;;4966186;28;20386;-73
2021/10/13 10:48:00;;;;;;;2.92;2.20;;;9.30;99.90;;;;;;4966212;28;20015;-73
2021/10/13 10:50:33;;;;;;;6.72;2.50;;;9.30;99.90;;;;;;4963273;28;20561;-73
2021/10/13 10:53:33;;;;;;;5.82;2.85;;;9.30;99.90;;;;;;4965040;28;20098;-73
2021/10/13 10:56:14;;;;;;;4.22;2.50;;;9.40;99.90;;;;;;4952904;28;20493;-73
2021/10/13 10:59:04;;;;;;;2.42;1.73;;;9.70;99.90;;;;;;4939529;28;20126;-73
2021/10/13 11:01:31;;;;;;;2.05;1.65;;;9.70;99.90;;;;;;4964228;28;20039;-73
2021/10/13 11:03:56;;;;;;;4.55;1.73;;;9.90;99.90;;;;;;4966141;28;20551;-73
2021/10/13 11:06:27;;;;;;;1.50;1.17;;;9.70;99.90;;;;;;4946201;28;20118;-73
2021/10/13 11:09:02;;;;;;;1.75;1.25;;;9.90;99.90;;;;;;4945385;28;20047;-73
2021/10/13 11:11:34;;;;;;;1.75;1.20;;;9.80;99.90;;;;;;4965304;28;20027;-73
2021/10/13 11:14:24;;;;;;;4.05;1.33;;;9.80;99.90;;;;;;4965375;28;20027;-73
2021/10/13 11:16:54;;;;;;;3.50;1.48;;;9.70;99.90;;;;;;4944829;28;20448;-73
2021/10/13 11:19:27;;;;;;;5.95;1.67;;;9.90;99.90;;;;;;4963985;28;20027;-73
2021/10/13 11:21:59;;;;;;;1.70;1.30;;;10.00;99.90;;;;;;4966289;28;20022;-73
2021/10/13 11:24:25;;;;;;;2.10;1.20;;;10.30;99.90;;;;;;4948202;28;20117;-73
2021/10/13 11:26:50;;;;;;;2.63;1.38;;;10.40;99.90;;;;;;4965451;28;20529;-73
2021/10/13 11:29:22;;;;;;;1.90;1.10;;;10.20;99.90;;;;;;4963886;28;20035;-73
2021/10/13 11:31:49;;;;;;;1.83;1.45;;;10.40;99.90;;;;;;4947855;28;20019;-73
2021/10/13 11:34:17;;;;;;;2.15;1.30;;;10.40;99.90;;;;;;4960579;28;20055;-73
2021/10/13 11:36:55;;;;;;;2.50;1.23;;;9.70;99.90;;;;;;4968041;28;20096;-73
2021/10/13 11:39:22;;;;;;;6.13;1.98;;;9.60;99.90;;;;;;4963203;28;20019;-73
2021/10/13 11:41:48;;;;;;;3.33;1.33;;;9.50;99.90;;;;;;4947658;29;20118;-73
2021/10/13 11:44:17;;;;;;;3.78;1.02;;;9.50;99.90;;;;;;4937013;29;20398;-74
2021/10/13 11:46:52;;;;;;;2.08;1.20;;;9.50;99.90;;;;;;4954061;29;20055;-73
2021/10/13 11:49:17;;;;;;;3.60;1.55;;;9.60;99.90;;;;;;4936833;29;20122;-73
2021/10/13 11:51:43;;;;;;;3.05;1.15;;;10.50;99.90;;;;;;4953802;29;20454;-73
2021/10/13 11:54:08;;;;;;;3.20;1.20;;;10.80;99.90;;;;;;4954163;29;20027;-73
2021/10/13 11:56:34;;;;;;;1.38;1.00;;;10.70;99.90;;;;;;4953807;28;20030;-73
2021/10/13 11:59:11;;;;;;;2.35;1.00;;;10.50;99.90;;;;;;4954045;28;20102;-73
2021/10/13 12:01:36;;;;;;;4.90;1.17;;;10.40;99.90;;;;;;4953732;29;20042;-73
2021/10/13 12:04:08;;;;;;;2.53;1.33;;;10.40;99.90;;;;;;4953961;28;20027;-73
2021/10/13 12:06:43;;;;;;;2.25;1.00;;;10.30;99.90;;;;;;4953826;29;20030;-73
2021/10/13 12:09:09;;;;;;;1.73;1.00;;;10.40;99.90;;;;;;4937024;28;20023;-73
2021/10/13 12:11:39;;;;;;;2.95;1.25;;;10.60;99.90;;;;;;4948922;28;20143;-73
2021/10/13 12:14:12;;;;;;;2.70;1.02;;;10.60;99.90;;;;;;4936577;29;20023;-73
2021/10/13 12:16:38;;;;;;;1.55;1.02;;;10.60;99.90;;;;;;4953808;29;20023;-73
2021/10/13 12:19:15;;;;;;;3.42;1.23;;;10.60;99.90;;;;;;4953847;29;20035;-73
2021/10/13 12:22:16;;;;;;;1.73;1.10;;;10.50;99.90;;;;;;4953568;28;20031;-73
2021/10/13 12:24:42;;;;;;;2.08;1.10;;;10.30;99.90;;;;;;4894421;29;20060;-73
2021/10/13 12:27:10;;;;;;;2.25;1.10;;;10.50;99.90;;;;;;4946374;28;20525;-73
2021/10/13 12:29:45;;;;;;;1.50;0.82;;;10.60;99.90;;;;;;4942484;29;20034;-73
2021/10/13 12:32:18;;;;;;;2.30;1.20;;;10.30;99.90;;;;;;4959718;29;20070;-73
2021/10/13 12:34:44;;;;;;;2.05;1.10;;;10.30;99.90;;;;;;4960037;28;20474;-73
2021/10/13 12:37:10;;;;;;;2.22;1.00;;;10.20;99.90;;;;;;4959978;28;20034;-73
2021/10/13 12:39:35;;;;;;;2.30;1.40;;;10.10;99.90;;;;;;4942789;29;20118;-73
2021/10/13 12:42:07;;;;;;;2.47;0.90;;;10.80;99.90;;;;;;4959796;29;20481;-73
2021/10/13 12:44:33;;;;;;;3.75;1.13;;;11.60;99.90;;;;;;4960186;28;20027;-73
2021/10/13 12:47:04;;;;;;;2.85;1.27;;;11.10;99.90;;;;;;4959862;28;20059;-73
2021/10/13 12:49:33;;;;;;;3.90;1.10;;;12.10;99.90;;;;;;4959812;29;20031;-74
2021/10/13 12:52:11;;;;;;;1.33;1.00;;;12.90;99.90;;;;;;4948324;29;20078;-74